Fort Bliss, Texas
Current Conditions -  °F | °C
As of 8:58 PM on Tuesday 21 Oct 2014 (Local Time) from KBIF Reporting Station
Few Clouds Few Clouds  
Wind Chill: 18°   Ceiling: Unl
Heat Index: 18°   Visibility: 10mi
Dew Point: 12°   Wind: 5mph
Humidity: 71%   Direction: 90°E
Pressure: 30.04"   Gusts: NA
Location:  31.8335°N, 106.423°W
Report Text: KBIF 220258Z 09004KT 10SM FEW050 18/12 A3004 RMK AO2A SLP127 T01760122 52012
Loading
Personal Weather Stations






























Interactive Weather Map
Tropical Storm Tracking
New forecast layout! Learn more

10-Day Weather Forecast

Advertisements
Track Severe Weather on mobile